createdAt,value
2022-10-17T00:00:37.935Z,15.70
2022-10-17T00:03:04.984Z,15.67
2022-10-17T00:05:31.653Z,15.66
2022-10-17T00:07:58.513Z,15.63
2022-10-17T00:10:25.779Z,15.67
2022-10-17T00:12:52.916Z,15.66
2022-10-17T00:15:20.657Z,15.59
2022-10-17T00:17:47.896Z,15.45
2022-10-17T00:20:15.143Z,15.50
2022-10-17T00:22:42.231Z,15.61
2022-10-17T00:25:09.083Z,15.53
2022-10-17T00:27:37.056Z,15.52
2022-10-17T00:30:04.510Z,15.48
2022-10-17T00:32:31.367Z,15.40
2022-10-17T00:34:58.759Z,15.42
2022-10-17T00:37:25.802Z,15.35
2022-10-17T00:39:52.644Z,15.28
2022-10-17T00:42:19.690Z,15.24
2022-10-17T00:44:47.718Z,15.22
2022-10-17T00:47:17.778Z,15.23
2022-10-17T00:49:44.584Z,15.20
2022-10-17T00:52:23.505Z,15.21
2022-10-17T00:54:55.710Z,15.20
2022-10-17T00:57:22.481Z,15.23
2022-10-17T00:59:54.471Z,15.23
2022-10-17T01:02:22.260Z,15.24
2022-10-17T01:04:50.923Z,15.28
2022-10-17T01:07:17.657Z,15.28
2022-10-17T01:09:45.662Z,15.24
2022-10-17T01:12:16.672Z,15.14
2022-10-17T01:14:58.617Z,15.21
2022-10-17T01:17:36.301Z,15.21
2022-10-17T01:20:40.840Z,15.15
2022-10-17T01:23:19.651Z,15.08
2022-10-17T01:26:08.309Z,15.05
2022-10-17T01:28:56.090Z,14.84
2022-10-17T01:31:24.113Z,14.82
2022-10-17T01:34:08.364Z,14.85
2022-10-17T01:36:59.373Z,14.86
2022-10-17T01:39:48.007Z,14.83
2022-10-17T01:42:49.881Z,14.82
2022-10-17T01:45:25.800Z,14.78
2022-10-17T01:47:53.206Z,14.77
2022-10-17T01:50:28.959Z,14.76
2022-10-17T01:52:59.717Z,14.75
2022-10-17T01:55:36.499Z,14.86
2022-10-17T01:58:25.116Z,14.86
2022-10-17T02:00:52.321Z,14.86
2022-10-17T02:03:20.167Z,14.83
2022-10-17T02:05:47.376Z,14.80
2022-10-17T02:08:14.439Z,14.81
2022-10-17T02:11:16.661Z,14.80
2022-10-17T02:13:52.352Z,14.79
2022-10-17T02:16:36.162Z,14.79
2022-10-17T02:19:03.308Z,14.85
2022-10-17T02:21:54.071Z,14.86
2022-10-17T02:24:32.682Z,14.82
2022-10-17T02:27:12.782Z,14.80
2022-10-17T02:29:54.176Z,14.75
2022-10-17T02:32:35.445Z,14.62
2022-10-17T02:35:04.172Z,14.63
2022-10-17T02:37:31.720Z,14.57
2022-10-17T02:40:00.103Z,14.59
2022-10-17T02:42:27.876Z,14.57
2022-10-17T02:45:00.121Z,14.59
2022-10-17T02:47:36.899Z,14.53
2022-10-17T02:50:06.458Z,14.47
2022-10-17T02:52:48.593Z,14.58
2022-10-17T02:55:23.535Z,14.58
2022-10-17T02:57:56.967Z,14.53
2022-10-17T03:00:25.328Z,14.48
2022-10-17T03:02:53.699Z,14.48
2022-10-17T03:05:23.249Z,14.49
2022-10-17T03:07:50.013Z,14.49
2022-10-17T03:10:16.815Z,14.44
2022-10-17T03:12:43.779Z,14.49
2022-10-17T03:15:12.409Z,14.44
2022-10-17T03:17:39.315Z,14.42
2022-10-17T03:20:08.095Z,14.39
2022-10-17T03:22:34.907Z,14.32
2022-10-17T03:25:03.637Z,14.24
2022-10-17T03:27:30.662Z,14.18
2022-10-17T03:29:57.882Z,14.19
2022-10-17T03:32:24.767Z,14.23
2022-10-17T03:34:51.446Z,14.30
2022-10-17T03:37:18.135Z,14.33
2022-10-17T03:39:44.945Z,14.35
2022-10-17T03:42:11.736Z,14.37
2022-10-17T03:44:38.475Z,14.37
2022-10-17T03:47:06.486Z,14.32
2022-10-17T03:49:33.995Z,14.30
2022-10-17T03:52:00.692Z,14.25
2022-10-17T03:54:27.952Z,14.24
2022-10-17T03:56:54.737Z,14.20
2022-10-17T03:59:22.405Z,14.23
2022-10-17T04:01:58.590Z,14.28
2022-10-17T04:04:25.340Z,14.30
2022-10-17T04:06:52.012Z,14.32
2022-10-17T04:09:18.762Z,14.29
2022-10-17T04:12:00.352Z,14.20
2022-10-17T04:14:27.126Z,14.16
2022-10-17T04:16:54.389Z,14.10
2022-10-17T04:19:21.868Z,14.03
2022-10-17T04:21:49.422Z,14.07
2022-10-17T04:24:17.376Z,13.91
2022-10-17T04:26:53.605Z,13.70
2022-10-17T04:29:25.401Z,13.73
2022-10-17T04:31:56.184Z,13.75
2022-10-17T04:34:32.949Z,13.83
2022-10-17T04:36:59.714Z,13.90
2022-10-17T04:39:27.726Z,13.91
2022-10-17T04:41:56.582Z,13.88
2022-10-17T04:44:24.075Z,13.82
2022-10-17T04:46:52.252Z,13.72
2022-10-17T04:49:19.712Z,13.70
2022-10-17T04:51:48.954Z,13.61
2022-10-17T04:54:21.947Z,13.61
2022-10-17T04:56:54.310Z,13.68
2022-10-17T04:59:21.055Z,13.70
2022-10-17T05:01:53.292Z,13.68
2022-10-17T05:04:23.915Z,13.61
2022-10-17T05:06:53.205Z,13.65
2022-10-17T05:09:22.683Z,13.66
2022-10-17T05:11:49.359Z,13.70
2022-10-17T05:14:18.131Z,13.74
2022-10-17T05:16:44.945Z,13.80
2022-10-17T05:19:12.045Z,13.82
2022-10-17T05:21:44.517Z,13.82
2022-10-17T05:24:13.340Z,13.79
2022-10-17T05:26:40.028Z,13.80
2022-10-17T05:29:06.812Z,13.82
2022-10-17T05:31:37.820Z,13.77
2022-10-17T05:34:09.012Z,13.75
2022-10-17T05:36:38.336Z,13.74
2022-10-17T05:39:05.791Z,13.79
2022-10-17T05:41:34.700Z,13.81
2022-10-17T05:44:04.641Z,13.81
2022-10-17T05:46:42.240Z,13.81
2022-10-17T05:49:15.097Z,13.84
2022-10-17T05:51:52.527Z,13.86
2022-10-17T05:54:19.410Z,13.87
2022-10-17T05:56:46.102Z,13.89
2022-10-17T05:59:12.840Z,13.88
2022-10-17T06:01:49.234Z,13.95
2022-10-17T06:04:16.034Z,13.95
2022-10-17T06:06:43.416Z,14.04
2022-10-17T06:09:10.551Z,14.08
2022-10-17T06:11:40.054Z,14.18
2022-10-17T06:14:07.365Z,14.24
2022-10-17T06:16:34.607Z,14.32
2022-10-17T06:19:01.732Z,14.38
2022-10-17T06:21:29.551Z,14.36
2022-10-17T06:24:06.197Z,14.40
2022-10-17T06:26:35.743Z,14.36
2022-10-17T06:29:02.589Z,14.28
2022-10-17T06:31:34.677Z,14.38
2022-10-17T06:34:01.485Z,14.45
2022-10-17T06:36:28.975Z,14.47
2022-10-17T06:38:55.625Z,14.42
2022-10-17T06:41:41.464Z,14.42
2022-10-17T06:44:11.356Z,14.45
2022-10-17T06:46:59.152Z,14.47
2022-10-17T06:49:27.293Z,14.50
2022-10-17T06:52:17.296Z,14.52
2022-10-17T06:54:57.600Z,14.54
2022-10-17T06:57:32.615Z,14.63
2022-10-17T07:00:21.292Z,14.75
2022-10-17T07:02:51.529Z,14.84
2022-10-17T07:05:19.526Z,14.90
2022-10-17T07:07:48.532Z,15.03
2022-10-17T07:10:18.508Z,15.15
2022-10-17T07:12:45.959Z,15.15
2022-10-17T07:15:13.363Z,15.19
2022-10-17T07:17:40.055Z,15.21
2022-10-17T07:20:07.450Z,15.32
2022-10-17T07:22:36.044Z,15.36
2022-10-17T07:25:02.791Z,15.45
2022-10-17T07:27:34.330Z,15.41
2022-10-17T07:30:01.834Z,15.42
2022-10-17T07:32:37.375Z,15.50
2022-10-17T07:35:05.110Z,15.51
2022-10-17T07:37:32.203Z,15.51
2022-10-17T07:39:59.983Z,15.67
2022-10-17T07:42:27.942Z,15.77
2022-10-17T07:44:55.288Z,15.89
2022-10-17T07:47:23.054Z,15.91
2022-10-17T07:49:50.324Z,16.02
2022-10-17T07:52:17.316Z,16.20
2022-10-17T07:54:44.556Z,16.36
2022-10-17T07:57:11.268Z,16.47
2022-10-17T07:59:38.502Z,16.45
2022-10-17T08:02:05.385Z,16.51
2022-10-17T08:04:32.597Z,16.64
2022-10-17T08:07:17.955Z,16.78
2022-10-17T08:09:45.985Z,16.91
2022-10-17T08:12:14.935Z,16.99
2022-10-17T08:14:42.239Z,17.09
2022-10-17T08:17:09.419Z,17.28
2022-10-17T08:19:40.451Z,17.43
2022-10-17T08:22:07.386Z,17.54
2022-10-17T08:24:34.074Z,17.65
2022-10-17T08:27:00.901Z,17.78
2022-10-17T08:29:27.710Z,17.91
2022-10-17T08:31:58.662Z,18.06
2022-10-17T08:34:27.733Z,18.06
2022-10-17T08:36:54.856Z,18.11
2022-10-17T08:39:21.525Z,18.16
2022-10-17T08:41:56.920Z,18.08
2022-10-17T08:44:29.902Z,18.07
2022-10-17T08:46:59.953Z,18.15
2022-10-17T08:49:39.245Z,18.25
2022-10-17T08:52:30.809Z,18.28
2022-10-17T08:54:57.603Z,18.17
2022-10-17T08:57:24.605Z,18.24
2022-10-17T08:59:52.851Z,18.34
2022-10-17T09:02:33.516Z,18.49
2022-10-17T09:05:24.043Z,18.66
2022-10-17T09:08:02.451Z,18.79
2022-10-17T09:10:29.050Z,18.79
2022-10-17T09:13:17.212Z,18.64
2022-10-17T09:15:55.731Z,18.82
2022-10-17T09:18:29.639Z,18.88
2022-10-17T09:21:28.567Z,19.00
2022-10-17T09:24:09.067Z,19.13
2022-10-17T09:26:42.175Z,19.19
2022-10-17T09:29:25.293Z,19.22
2022-10-17T09:32:15.234Z,19.22
2022-10-17T09:34:41.920Z,19.27
2022-10-17T09:37:13.977Z,19.17
2022-10-17T09:39:41.885Z,19.21
2022-10-17T09:42:13.992Z,19.25
2022-10-17T09:45:11.826Z,19.26
2022-10-17T09:47:42.061Z,19.22
2022-10-17T09:50:30.503Z,19.24
2022-10-17T09:53:01.918Z,19.40
2022-10-17T09:55:38.189Z,19.51
2022-10-17T09:58:07.202Z,19.62
2022-10-17T10:00:36.050Z,19.68
2022-10-17T10:03:22.148Z,19.78
2022-10-17T10:06:05.382Z,19.84
2022-10-17T10:08:35.738Z,19.89
2022-10-17T10:11:07.872Z,19.96
2022-10-17T10:13:36.297Z,20.00
2022-10-17T10:16:17.221Z,20.09
2022-10-17T10:18:45.508Z,20.11
2022-10-17T10:21:15.334Z,20.18
2022-10-17T10:23:43.853Z,20.25
2022-10-17T10:26:22.619Z,20.36
2022-10-17T10:29:08.303Z,20.41
2022-10-17T10:31:38.087Z,20.52
2022-10-17T10:34:18.671Z,20.68
2022-10-17T10:37:17.188Z,20.79
2022-10-17T10:40:20.584Z,20.82
2022-10-17T10:42:50.494Z,20.88
2022-10-17T10:45:48.411Z,20.97
2022-10-17T10:48:26.854Z,21.02
2022-10-17T10:51:05.582Z,21.14
2022-10-17T10:53:42.047Z,21.19
2022-10-17T10:56:27.007Z,21.14
2022-10-17T10:59:08.978Z,21.09
2022-10-17T11:02:03.387Z,21.12
2022-10-17T11:04:45.247Z,21.10
2022-10-17T11:07:23.432Z,21.17
2022-10-17T11:10:09.085Z,21.21
2022-10-17T11:12:41.099Z,21.31
2022-10-17T11:15:30.180Z,21.35
2022-10-17T11:18:03.446Z,21.31
2022-10-17T11:20:37.072Z,21.39
2022-10-17T11:23:32.987Z,21.58
2022-10-17T11:26:04.228Z,21.50
2022-10-17T11:28:31.053Z,21.58
2022-10-17T11:31:08.100Z,21.68
2022-10-17T11:33:41.102Z,21.69
2022-10-17T11:36:09.937Z,21.82
2022-10-17T11:38:36.914Z,21.92
2022-10-17T11:41:05.081Z,21.94
2022-10-17T11:43:57.298Z,21.93
2022-10-17T11:46:25.715Z,21.98
2022-10-17T11:49:20.599Z,22.08
2022-10-17T11:52:01.304Z,22.10
2022-10-17T11:55:01.283Z,22.10
2022-10-17T11:57:37.479Z,22.24
2022-10-17T12:00:22.027Z,22.25
2022-10-17T12:03:12.126Z,22.26
2022-10-17T12:05:55.927Z,22.26
2022-10-17T12:08:39.457Z,22.25
2022-10-17T12:11:21.634Z,22.34
2022-10-17T12:13:55.155Z,22.43
2022-10-17T12:16:21.798Z,22.42
2022-10-17T12:18:50.751Z,22.37
2022-10-17T12:21:17.647Z,22.41
2022-10-17T12:23:52.630Z,22.47
2022-10-17T12:26:29.660Z,22.48
2022-10-17T12:28:57.259Z,22.49
2022-10-17T12:31:29.753Z,22.46
2022-10-17T12:34:01.135Z,22.55
2022-10-17T12:36:28.473Z,22.64
2022-10-17T12:39:01.322Z,22.77
2022-10-17T12:41:40.406Z,22.91
2022-10-17T12:44:13.630Z,23.04
2022-10-17T12:46:51.806Z,23.26
2022-10-17T12:49:41.452Z,23.31
2022-10-17T12:52:32.637Z,23.40
2022-10-17T12:55:12.068Z,23.48
2022-10-17T12:57:48.924Z,23.62
2022-10-17T13:00:33.855Z,23.75
2022-10-17T13:03:28.386Z,23.90
2022-10-17T13:05:58.294Z,23.97
2022-10-17T13:08:29.128Z,23.86
2022-10-17T13:10:56.480Z,23.96
2022-10-17T13:13:39.308Z,24.03
2022-10-17T13:16:06.105Z,24.03
2022-10-17T13:18:33.031Z,23.97
2022-10-17T13:20:59.727Z,23.74
2022-10-17T13:23:29.387Z,23.72
2022-10-17T13:26:16.514Z,23.65
2022-10-17T13:28:43.941Z,23.63
2022-10-17T13:31:39.481Z,23.42
2022-10-17T13:34:15.457Z,23.51
2022-10-17T13:36:47.941Z,23.43
2022-10-17T13:39:23.203Z,23.39
2022-10-17T13:41:59.408Z,23.39
2022-10-17T13:44:28.215Z,23.31
2022-10-17T13:46:55.054Z,23.34
2022-10-17T13:49:55.463Z,23.19
2022-10-17T13:52:25.796Z,23.27
2022-10-17T13:54:53.753Z,23.22
2022-10-17T13:57:24.137Z,23.23
2022-10-17T13:59:53.892Z,23.38
2022-10-17T14:02:24.280Z,23.29
2022-10-17T14:05:28.056Z,23.08
2022-10-17T14:08:20.229Z,22.94
2022-10-17T14:10:46.658Z,22.89
2022-10-17T14:13:21.745Z,22.89
2022-10-17T14:15:48.814Z,22.84
2022-10-17T14:18:21.069Z,22.81
2022-10-17T14:21:30.396Z,22.71
2022-10-17T14:23:38.907Z,22.68
2022-10-17T14:26:08.263Z,22.67
2022-10-17T14:28:35.419Z,22.56
2022-10-17T14:31:18.358Z,22.52
2022-10-17T14:33:50.522Z,22.52
2022-10-17T14:36:18.549Z,22.45
2022-10-17T14:44:29.743Z,22.24
2022-10-17T14:47:00.257Z,22.26
2022-10-17T14:49:39.143Z,22.26
2022-10-17T14:52:16.823Z,22.35
2022-10-17T14:54:46.852Z,22.26
2022-10-17T14:57:34.531Z,22.25
2022-10-17T15:00:03.073Z,22.30
2022-10-17T15:02:33.009Z,22.10
2022-10-17T15:05:09.446Z,21.94
2022-10-17T15:07:39.098Z,21.96
2022-10-17T15:10:06.613Z,21.87
2022-10-17T15:12:33.355Z,21.84
2022-10-17T15:15:02.287Z,21.87
2022-10-17T15:17:31.044Z,21.76
2022-10-17T15:19:57.981Z,21.61
2022-10-17T15:22:25.170Z,21.44
2022-10-17T15:24:52.951Z,21.26
2022-10-17T15:27:26.363Z,21.09
2022-10-17T15:29:53.253Z,20.95
2022-10-17T15:32:20.292Z,20.82
2022-10-17T15:34:47.110Z,20.71
2022-10-17T15:37:33.789Z,20.62
2022-10-17T15:40:05.847Z,20.57
2022-10-17T15:42:35.726Z,20.50
2022-10-17T15:45:02.584Z,20.42
2022-10-17T15:47:33.777Z,20.45
2022-10-17T15:50:01.472Z,20.39
2022-10-17T15:52:28.471Z,20.32
2022-10-17T15:54:57.289Z,20.26
2022-10-17T15:57:29.105Z,20.22
2022-10-17T15:59:58.278Z,20.20
2022-10-17T16:02:25.291Z,20.15
2022-10-17T16:04:52.298Z,20.08
2022-10-17T16:07:19.964Z,20.02
2022-10-17T16:09:46.640Z,19.94
2022-10-17T16:12:17.732Z,19.89
2022-10-17T16:14:44.887Z,19.83
2022-10-17T16:17:15.536Z,19.74
2022-10-17T16:19:42.838Z,19.66
2022-10-17T16:22:22.897Z,19.57
2022-10-17T16:24:49.567Z,19.51
2022-10-17T18:37:17.628Z,17.76
2022-10-17T18:39:45.056Z,17.66
2022-10-17T18:42:11.960Z,17.63
2022-10-17T18:44:38.677Z,17.61
2022-10-17T18:47:05.513Z,17.60
2022-10-17T18:49:32.248Z,17.63
2022-10-17T18:51:59.818Z,17.73
2022-10-17T18:54:26.506Z,17.80
2022-10-17T18:56:54.261Z,17.72
2022-10-17T18:59:21.395Z,17.61
2022-10-17T19:01:48.141Z,17.60
2022-10-17T19:04:15.156Z,17.51
2022-10-17T19:06:41.904Z,17.50
2022-10-17T19:09:10.765Z,17.53
2022-10-17T19:11:38.693Z,17.44
2022-10-17T19:14:13.315Z,17.44
2022-10-17T19:16:45.835Z,17.46
2022-10-17T19:19:17.751Z,17.44
2022-10-17T19:21:45.113Z,17.34
2022-10-17T19:24:15.108Z,17.33
2022-10-17T19:26:43.592Z,17.21
2022-10-17T19:29:13.938Z,17.15
2022-10-17T19:31:41.209Z,17.15
2022-10-17T19:34:07.947Z,17.14
2022-10-17T19:36:35.290Z,17.20
2022-10-17T19:39:04.269Z,17.22
2022-10-17T19:41:31.407Z,17.24
2022-10-17T19:43:58.279Z,17.20
2022-10-17T19:46:26.315Z,17.21
2022-10-17T19:48:53.105Z,17.11
2022-10-17T19:51:24.548Z,17.09
2022-10-17T19:53:52.464Z,17.11
2022-10-17T19:56:20.470Z,17.08
2022-10-17T19:58:48.206Z,17.03
2022-10-17T20:01:26.397Z,16.99
2022-10-17T20:03:53.507Z,16.95
2022-10-17T20:06:20.583Z,16.93
2022-10-17T20:08:47.351Z,16.90
2022-10-17T20:11:16.622Z,16.88
2022-10-17T20:13:44.846Z,16.95
2022-10-17T20:16:23.210Z,16.94
2022-10-17T20:18:51.497Z,16.98
2022-10-17T20:21:23.036Z,16.99
2022-10-17T20:23:50.623Z,16.97
2022-10-17T20:26:26.285Z,16.95
2022-10-17T20:29:01.877Z,16.92
2022-10-17T20:31:28.722Z,16.78
2022-10-17T20:33:59.763Z,16.79
2022-10-17T20:36:26.641Z,16.75
2022-10-17T20:38:57.494Z,16.80
2022-10-17T20:41:25.185Z,16.67
2022-10-17T20:43:52.780Z,16.65
2022-10-17T20:46:35.975Z,16.67
2022-10-17T20:49:05.820Z,16.73
2022-10-17T20:51:33.048Z,16.74
2022-10-17T20:53:59.764Z,16.71
2022-10-17T20:56:28.844Z,16.66
2022-10-17T20:59:00.653Z,16.61
2022-10-17T21:01:28.330Z,16.69
2022-10-17T21:03:55.003Z,16.67
2022-10-17T21:06:22.759Z,16.66
2022-10-17T21:08:50.000Z,16.58
2022-10-17T21:11:28.743Z,16.58
2022-10-17T21:14:06.439Z,16.60
2022-10-17T21:16:35.100Z,16.60
2022-10-17T21:19:02.416Z,16.55
2022-10-17T21:21:34.621Z,16.55
2022-10-17T21:24:04.900Z,16.48
2022-10-17T21:26:33.197Z,16.44
2022-10-17T21:29:05.476Z,16.43
2022-10-17T21:31:34.039Z,16.48
2022-10-17T21:34:05.893Z,16.39
2022-10-17T21:36:32.486Z,16.36
2022-10-17T21:38:59.220Z,16.35
2022-10-17T21:41:27.681Z,16.31
2022-10-17T21:43:56.114Z,16.31
2022-10-17T21:46:23.836Z,16.28
2022-10-17T21:48:51.921Z,16.28
2022-10-17T21:51:22.494Z,16.27
2022-10-17T21:53:50.273Z,16.18
2022-10-17T21:56:19.340Z,16.13
2022-10-17T21:58:46.086Z,16.10
2022-10-17T22:01:17.781Z,16.08
2022-10-17T22:03:47.176Z,16.04
2022-10-17T22:06:38.808Z,15.97
2022-10-17T22:09:04.004Z,15.88
2022-10-17T22:11:32.293Z,15.83
2022-10-17T22:14:04.489Z,15.80
2022-10-17T22:16:31.276Z,15.81
2022-10-17T22:19:03.151Z,15.84
2022-10-17T22:21:33.391Z,15.92
2022-10-17T22:24:02.784Z,15.90
2022-10-17T22:26:31.137Z,15.93
2022-10-17T22:28:58.241Z,15.91
2022-10-17T22:31:25.304Z,15.85
2022-10-17T22:33:52.385Z,15.80
2022-10-17T22:36:19.159Z,15.77
2022-10-17T22:38:45.755Z,15.75
2022-10-17T22:41:12.366Z,15.81
2022-10-17T22:43:39.107Z,15.83
2022-10-17T22:46:07.029Z,15.82
2022-10-17T22:48:34.423Z,15.77
2022-10-17T22:51:01.476Z,15.70
2022-10-17T22:53:29.760Z,15.63
2022-10-17T22:56:05.876Z,15.58
2022-10-17T22:58:34.054Z,15.56
2022-10-17T23:01:01.249Z,15.58
2022-10-17T23:03:29.109Z,15.52
2022-10-17T23:05:56.714Z,15.49
2022-10-17T23:08:24.331Z,15.47
2022-10-17T23:10:51.249Z,15.42
2022-10-17T23:13:19.098Z,15.35
2022-10-17T23:15:46.112Z,15.42
2022-10-17T23:18:12.899Z,15.43
2022-10-17T23:20:39.540Z,15.35
2022-10-17T23:23:06.656Z,15.37
2022-10-17T23:25:34.288Z,15.33
2022-10-17T23:28:01.189Z,15.32
2022-10-17T23:30:27.947Z,15.39
2022-10-17T23:32:55.241Z,15.46
2022-10-17T23:35:22.202Z,15.40
2022-10-17T23:37:48.850Z,15.36
2022-10-17T23:40:15.805Z,15.30
2022-10-17T23:42:42.452Z,15.41
2022-10-17T23:45:09.626Z,15.50
2022-10-17T23:47:36.225Z,15.52
2022-10-17T23:50:03.330Z,15.47
2022-10-17T23:52:29.934Z,15.51
2022-10-17T23:54:56.569Z,15.49
2022-10-17T23:57:23.240Z,15.48
2022-10-17T23:59:50.376Z,15.42
